Weather reports worldwide

Advertisment
La Spezia-La Castellana, Italy (16129): temperature & dewpoint: 13.11.2019 19:00:00 - 19.11.2019 19:00:00 (CET)La Spezia-La Castellana, Italy (16129): wind speed: 13.11.2019 19:00:00 - 19.11.2019 19:00:00 (CET)La Spezia-La Castellana, Italy (16129): wind direction: 13.11.2019 19:00:00 - 19.11.2019 19:00:00 (CET)
Date & Time tt [°C] td [°C] ff [km/h] ff [kn] dd
19.11.2019 19:00:00 - - - - -
19.11.2019 18:00:00 10,3 8,7 22 12 E
19.11.2019 17:00:00 10,6 9,0 26 14 E
19.11.2019 16:00:00 10,8 9,2 24 13 ENE
19.11.2019 15:00:00 10,5 8,9 24 13 E
19.11.2019 14:00:00 10,4 9,0 28 15 E
19.11.2019 13:00:00 10,2 8,8 28 15 ESE
19.11.2019 12:00:00 10,5 9,1 39 21 ESE
19.11.2019 11:00:00 10,5 8,9 29 16 E
19.11.2019 10:00:00 10,5 8,9 37 20 ESE
19.11.2019 09:00:00 10,5 8,9 34 18 E
19.11.2019 08:00:00 10,4 8,8 35 19 E
19.11.2019 07:00:00 9,8 8,2 28 15 ENE
19.11.2019 06:00:00 9,7 8,1 26 14 E
19.11.2019 05:00:00 9,6 8,0 35 19 ENE
19.11.2019 04:00:00 9,6 8,0 31 17 ENE
19.11.2019 03:00:00 9,3 7,7 28 15 ENE
19.11.2019 02:00:00 9,1 7,7 29 16 NE
19.11.2019 01:00:00 7,4 6,0 29 16 NNE
19.11.2019 00:00:00 6,8 5,4 26 14 N
18.11.2019 23:00:00 7,1 5,7 11 6 NE
18.11.2019 22:00:00 6,2 4,8 28 15 N
18.11.2019 21:00:00 6,3 4,9 24 13 N
18.11.2019 20:00:00 6,3 4,9 21 11 N
18.11.2019 19:00:00 6,4 5,0 5 3 NNE
18.11.2019 18:00:00 6,1 4,7 29 16 N
18.11.2019 17:00:00 6,4 5,0 28 15 N
18.11.2019 16:00:00 6,7 5,2 22 12 N
18.11.2019 15:00:00 7,2 5,6 18 10 NNE
18.11.2019 14:00:00 7,8 6,2 9 5 NE
18.11.2019 13:00:00 8,0 6,4 13 7 S
18.11.2019 12:00:00 8,4 6,8 9 5 ENE
18.11.2019 11:00:00 8,0 6,4 5 3 NE
18.11.2019 10:00:00 7,2 5,6 15 8 ESE
18.11.2019 09:00:00 7,2 5,6 21 11 E
18.11.2019 08:00:00 8,3 6,7 13 7 E
18.11.2019 07:00:00 8,3 6,7 21 11 SSW
18.11.2019 06:00:00 8,2 6,5 29 16 SSW
18.11.2019 05:00:00 7,7 6,1 28 15 SSW
18.11.2019 04:00:00 7,2 5,6 29 16 SW
18.11.2019 03:00:00 6,3 4,8 26 14 SSW
18.11.2019 02:00:00 7,5 5,9 29 16 SSW
18.11.2019 01:00:00 6,1 4,6 34 18 S
18.11.2019 00:00:00 7,9 5,3 29 16 SSW
17.11.2019 23:00:00 7,2 5,6 39 21 SSW
17.11.2019 22:00:00 8,1 6,2 21 11 WNW
17.11.2019 21:00:00 8,6 6,2 29 16 S
17.11.2019 20:00:00 8,3 4,8 22 12 N
17.11.2019 19:00:00 8,2 4,9 22 12 S
17.11.2019 18:00:00 8,4 5,1 29 16 WNW
17.11.2019 17:00:00 8,7 7,1 29 16 S
17.11.2019 16:00:00 8,5 6,9 16 9 SSE
17.11.2019 15:00:00 8,5 6,9 9 5 SSE
17.11.2019 14:00:00 - - - - -
17.11.2019 13:00:00 7,1 5,7 13 7 SW
17.11.2019 12:00:00 7,2 5,8 29 16 SW
17.11.2019 11:00:00 8,2 6,8 44 24 SSW
17.11.2019 10:00:00 8,7 7,3 34 18 E
17.11.2019 09:00:00 7,5 5,9 28 15 NNE
17.11.2019 08:00:00 6,9 5,4 29 16 N
17.11.2019 07:00:00 7,7 6,1 31 17 N
17.11.2019 06:00:00 6,7 5,2 31 17 N
17.11.2019 05:00:00 5,8 4,3 31 17 N
17.11.2019 04:00:00 5,9 4,4 39 21 N
17.11.2019 03:00:00 6,6 5,1 44 24 N
17.11.2019 02:00:00 5,1 3,6 48 26 N
17.11.2019 01:00:00 4,8 3,3 50 27 N
17.11.2019 00:00:00 4,9 3,4 42 23 N
16.11.2019 23:00:00 5,6 4,1 26 14 N
16.11.2019 22:00:00 6,4 4,9 21 11 WSW
16.11.2019 21:00:00 8,1 6,0 28 15 NNE
16.11.2019 20:00:00 9,0 4,6 22 12 N
16.11.2019 19:00:00 9,3 4,7 26 14 N
16.11.2019 18:00:00 9,1 5,0 22 12 N
16.11.2019 17:00:00 8,9 6,1 24 13 N
16.11.2019 16:00:00 8,9 6,1 22 12 N
16.11.2019 15:00:00 8,7 7,1 15 8 N
16.11.2019 14:00:00 8,9 6,7 8 4 N
16.11.2019 13:00:00 9,2 7,1 9 5 E
16.11.2019 12:00:00 9,0 7,1 4 2 NE
16.11.2019 11:00:00 8,6 7,0 9 5 NE
16.11.2019 10:00:00 6,9 5,4 5 3 NNW
16.11.2019 09:00:00 6,7 5,2 15 8 N
16.11.2019 08:00:00 7,1 5,5 21 11 SSW
16.11.2019 07:00:00 7,3 5,7 5 3 ESE
16.11.2019 06:00:00 6,4 4,9 5 3 N
16.11.2019 05:00:00 5,9 4,4 5 3 NW
16.11.2019 04:00:00 6,6 5,1 4 2 S
16.11.2019 03:00:00 6,7 5,2 21 11 WSW
16.11.2019 02:00:00 7,0 5,5 18 10 W
16.11.2019 01:00:00 6,7 5,2 11 6 S
16.11.2019 00:00:00 6,8 5,3 11 6 E
15.11.2019 23:00:00 5,5 4,0 21 11 N
15.11.2019 22:00:00 5,6 4,1 18 10 N
15.11.2019 21:00:00 5,9 4,4 5 3 N
15.11.2019 20:00:00 5,7 4,2 11 6 NNW
15.11.2019 19:00:00 5,5 4,0 11 6 NNW
15.11.2019 18:00:00 5,4 3,9 16 9 N
15.11.2019 17:00:00 5,4 3,9 18 10 N
15.11.2019 16:00:00 5,4 3,9 18 10 N
15.11.2019 15:00:00 6,0 4,5 21 11 N
15.11.2019 14:00:00 6,2 4,7 13 7 N
15.11.2019 13:00:00 7,1 5,5 13 7 NNE
15.11.2019 12:00:00 7,5 5,9 8 4 W
15.11.2019 11:00:00 8,7 7,1 5 3 NNE
15.11.2019 10:00:00 9,0 7,4 8 4 N
15.11.2019 09:00:00 9,2 7,6 9 5 WNW
15.11.2019 08:00:00 9,2 7,6 21 11 WSW
15.11.2019 07:00:00 9,5 7,9 28 15 WSW
15.11.2019 06:00:00 9,5 7,9 39 21 SSW
15.11.2019 05:00:00 10,6 9,2 34 18 SE
15.11.2019 04:00:00 11,5 10,1 41 22 SSE
15.11.2019 03:00:00 10,6 9,2 76 41 SE
15.11.2019 02:00:00 10,7 9,1 61 33 ESE
15.11.2019 01:00:00 10,4 8,8 57 31 ESE
15.11.2019 00:00:00 10,7 9,1 48 26 ESE
14.11.2019 23:00:00 10,8 9,2 37 20 ESE
14.11.2019 22:00:00 10,7 9,1 39 21 ESE
14.11.2019 21:00:00 10,6 9,0 35 19 ESE
14.11.2019 20:00:00 10,8 8,9 39 21 ESE
14.11.2019 19:00:00 11,0 8,4 31 17 ESE
14.11.2019 18:00:00 10,9 8,3 21 11 NNW
14.11.2019 17:00:00 10,9 6,6 18 10 E
14.11.2019 16:00:00 11,0 7,5 28 15 ESE
14.11.2019 15:00:00 11,5 5,9 24 13 ESE
14.11.2019 14:00:00 12,4 7,8 16 9 E
14.11.2019 13:00:00 11,2 5,0 18 10 ENE
14.11.2019 12:00:00 11,0 4,6 15 8 ENE
14.11.2019 11:00:00 10,9 3,1 15 8 ENE
14.11.2019 10:00:00 10,0 2,3 13 7 NE
14.11.2019 09:00:00 8,3 1,6 11 6 NNE
14.11.2019 08:00:00 8,2 0,3 13 7 N
14.11.2019 07:00:00 7,7 0,1 16 9 N
14.11.2019 06:00:00 7,8 -0,5 21 11 N
14.11.2019 05:00:00 7,9 0,1 16 9 N
14.11.2019 04:00:00 7,2 1,2 18 10 NNW
14.11.2019 03:00:00 7,5 2,3 15 8 NNW
14.11.2019 02:00:00 7,8 2,4 11 6 N
14.11.2019 01:00:00 7,9 3,9 11 6 NNW
14.11.2019 00:00:00 7,9 4,8 11 6 NNW
13.11.2019 23:00:00 7,8 5,6 13 7 N
13.11.2019 22:00:00 8,1 6,4 11 6 NNW
13.11.2019 21:00:00 8,8 7,1 5 3 NNW
13.11.2019 20:00:00 9,3 7,2 2 1 N
13.11.2019 19:00:00 9,3 7,4 5 3 NNE

tt = temperature
td = dewpoint
ff = wind speed
dd = wind direction

Next stations